Songa Opal — V7RO5 — position and weather

sailwx.info

Track history (hours):
 
Tides and Currents Weather Stations Pressure Air Temp Water Temp Dewpoint Dewpoint Depression Visibility Wind Speed Wind Dir Waves Ship Positions

Songa Opal

Last reported at 2016-Jan-27 19:33 UTC. Time now 2016-Feb-06 23:28 UTC.
Position N 29°25' W 094°50'.
Warning: this ship's position is 10 days out of date.

Length 144 m; draft 9.5 m.

Type: Ship. MMSI: 538003550.

Date/timePositionNaut miles runAvg speedWind from/ knotsBaromVisibWave heightAir tempDewpointWater temp
2016-Jan-27 19:33N 29°25' W 094°50'1212.1
2016-Jan-27 18:33N 29°35' W 094°56'1010.0
2016-Jan-27 17:33N 29°44' W 095°03'4 4.2
2016-Jan-27 16:33N 29°44' W 095°07'0 0.0
2016-Jan-27 15:32N 29°44' W 095°07'0 0.0
2016-Jan-27 14:32N 29°44' W 095°07'0 0.0
2016-Jan-27 13:26N 29°44' W 095°07'0 0.0
2016-Jan-27 12:29N 29°44' W 095°07'0 0.0
2016-Jan-27 11:32N 29°44' W 095°07'0 0.0
2016-Jan-27 10:32N 29°44' W 095°07'0 0.0
2016-Jan-27 09:29N 29°44' W 095°07'0 0.0
2016-Jan-27 08:26N 29°44' W 095°07'0 0.0
2016-Jan-27 07:32N 29°44' W 095°07'0 0.0
2016-Jan-27 06:32N 29°44' W 095°07'0 0.0
2016-Jan-27 05:32N 29°44' W 095°07'0 0.0
2016-Jan-27 04:32N 29°44' W 095°07'0 0.0
2016-Jan-27 03:32N 29°44' W 095°07'0 0.0
2016-Jan-27 02:26N 29°44' W 095°07'0 0.0
2016-Jan-27 01:23N 29°44' W 095°07'0 0.0
2016-Jan-27 00:32N 29°44' W 095°07'0 0.0
2016-Jan-26 23:32N 29°44' W 095°07'0 0.0
2016-Jan-26 22:26N 29°44' W 095°07'0 0.0
2016-Jan-26 21:32N 29°44' W 095°07'0 0.0
2016-Jan-26 20:32N 29°44' W 095°07'0 0.0
2016-Jan-26 19:32N 29°44' W 095°07'0 0.0
2016-Jan-26 18:32N 29°44' W 095°07'0 0.0
2016-Jan-26 17:32N 29°44' W 095°07'0 0.0
2016-Jan-26 16:32N 29°44' W 095°07'0 0.0
2016-Jan-26 15:32N 29°44' W 095°07'0 0.0
2016-Jan-26 14:32N 29°44' W 095°07'0 0.0
2016-Jan-26 13:32N 29°44' W 095°07'0 0.0
2016-Jan-26 12:32N 29°44' W 095°07'0 0.0
2016-Jan-26 11:32N 29°44' W 095°07'0 0.0
2016-Jan-26 10:26N 29°44' W 095°07'0 0.0
2016-Jan-26 09:32N 29°44' W 095°07'0 0.0
2016-Jan-26 08:32N 29°44' W 095°07'0 0.0
2016-Jan-26 07:32N 29°44' W 095°07'0 0.0
2016-Jan-26 06:29N 29°44' W 095°07'0 0.0
2016-Jan-26 05:32N 29°44' W 095°07'0 0.0
2016-Jan-26 04:29N 29°44' W 095°07'0 0.0
2016-Jan-26 03:32N 29°44' W 095°07'0 0.0
2016-Jan-26 02:32N 29°44' W 095°07'0 0.0
2016-Jan-26 01:21N 29°44' W 095°07'4 4.4
2016-Jan-26 00:33N 29°44' W 095°03'9 9.2
2016-Jan-25 23:33N 29°37' W 094°57'1313.2
2016-Jan-25 22:33N 29°25' W 094°50'6 0.5
2016-Jan-25 10:11N 29°21' W 094°44'0 0.0
2016-Jan-25 08:32N 29°21' W 094°44'0 0.0
2016-Jan-25 07:29N 29°21' W 094°44'0 0.0
2016-Jan-25 06:29N 29°21' W 094°44'1 0.6
2016-Jan-25 04:33N 29°21' W 094°43'44 8.6
2016-Jan-24 23:28N 28°57' W 094°02'1413.2
2016-Jan-24 22:22N 28°49' W 093°48'1113.1
2016-Jan-24 21:33N 28°42' W 093°38'1313.1
2016-Jan-24 20:33N 28°34' W 093°26'  
Track history (hours):
 
Tides and Currents Weather Stations Pressure Air Temp Water Temp Dewpoint Dewpoint Depression Visibility Wind Speed Wind Dir Waves Ship Positions

Songa Opal

Last reported at 2016-Jan-27 19:33 UTC. Time now 2016-Feb-06 23:28 UTC.
Position N 29°25' W 094°50'.
Warning: this ship's position is 10 days out of date.

Length 144 m; draft 9.5 m.

Type: Ship. MMSI: 538003550.

Date/timePositionNaut miles runAvg speedWind from/ knotsBaromVisibWave heightAir tempDewpointWater temp
2016-Jan-27 19:33N 29°25' W 094°50'1212.1
2016-Jan-27 18:33N 29°35' W 094°56'1010.0
2016-Jan-27 17:33N 29°44' W 095°03'4 4.2
2016-Jan-27 16:33N 29°44' W 095°07'0 0.0
2016-Jan-27 15:32N 29°44' W 095°07'0 0.0
2016-Jan-27 14:32N 29°44' W 095°07'0 0.0
2016-Jan-27 13:26N 29°44' W 095°07'0 0.0
2016-Jan-27 12:29N 29°44' W 095°07'0 0.0
2016-Jan-27 11:32N 29°44' W 095°07'0 0.0
2016-Jan-27 10:32N 29°44' W 095°07'0 0.0
2016-Jan-27 09:29N 29°44' W 095°07'0 0.0
2016-Jan-27 08:26N 29°44' W 095°07'0 0.0
2016-Jan-27 07:32N 29°44' W 095°07'0 0.0
2016-Jan-27 06:32N 29°44' W 095°07'0 0.0
2016-Jan-27 05:32N 29°44' W 095°07'0 0.0
2016-Jan-27 04:32N 29°44' W 095°07'0 0.0
2016-Jan-27 03:32N 29°44' W 095°07'0 0.0
2016-Jan-27 02:26N 29°44' W 095°07'0 0.0
2016-Jan-27 01:23N 29°44' W 095°07'0 0.0
2016-Jan-27 00:32N 29°44' W 095°07'0 0.0
2016-Jan-26 23:32N 29°44' W 095°07'0 0.0
2016-Jan-26 22:26N 29°44' W 095°07'0 0.0
2016-Jan-26 21:32N 29°44' W 095°07'0 0.0
2016-Jan-26 20:32N 29°44' W 095°07'0 0.0
2016-Jan-26 19:32N 29°44' W 095°07'0 0.0
2016-Jan-26 18:32N 29°44' W 095°07'0 0.0
2016-Jan-26 17:32N 29°44' W 095°07'0 0.0
2016-Jan-26 16:32N 29°44' W 095°07'0 0.0
2016-Jan-26 15:32N 29°44' W 095°07'0 0.0
2016-Jan-26 14:32N 29°44' W 095°07'0 0.0
2016-Jan-26 13:32N 29°44' W 095°07'0 0.0
2016-Jan-26 12:32N 29°44' W 095°07'0 0.0
2016-Jan-26 11:32N 29°44' W 095°07'0 0.0
2016-Jan-26 10:26N 29°44' W 095°07'0 0.0
2016-Jan-26 09:32N 29°44' W 095°07'0 0.0
2016-Jan-26 08:32N 29°44' W 095°07'0 0.0
2016-Jan-26 07:32N 29°44' W 095°07'0 0.0
2016-Jan-26 06:29N 29°44' W 095°07'0 0.0
2016-Jan-26 05:32N 29°44' W 095°07'0 0.0
2016-Jan-26 04:29N 29°44' W 095°07'0 0.0
2016-Jan-26 03:32N 29°44' W 095°07'0 0.0
2016-Jan-26 02:32N 29°44' W 095°07'0 0.0
2016-Jan-26 01:21N 29°44' W 095°07'4 4.4
2016-Jan-26 00:33N 29°44' W 095°03'9 9.2
2016-Jan-25 23:33N 29°37' W 094°57'1313.2
2016-Jan-25 22:33N 29°25' W 094°50'6 0.5
2016-Jan-25 10:11N 29°21' W 094°44'0 0.0
2016-Jan-25 08:32N 29°21' W 094°44'0 0.0
2016-Jan-25 07:29N 29°21' W 094°44'0 0.0
2016-Jan-25 06:29N 29°21' W 094°44'1 0.6
2016-Jan-25 04:33N 29°21' W 094°43'44 8.6
2016-Jan-24 23:28N 28°57' W 094°02'1413.2
2016-Jan-24 22:22N 28°49' W 093°48'1113.1
2016-Jan-24 21:33N 28°42' W 093°38'1313.1
2016-Jan-24 20:33N 28°34' W 093°26'  

Dump ship's entire track history